Time;durP1;ratioP1;P1;durP2;ratioP2;P2;SDS_P1;SDS_P2;PMS_P1;PMS_P2;Temp;Humidity;BMP_temperature;BMP_pressure;BME280_temperature;BME280_humidity;BME280_pressure;Samples;Min_cycle;Max_cycle;Signal;HPM_P1;HPM_P2
2023/03/04 00:01:37;;;;;;;19.50;10.52;;;;;;;-0.78;100.00;99104.47;4159465;28;20481;-72
2023/03/04 00:03:38;;;;;;;19.38;9.23;;;;;;;-0.76;100.00;99106.91;4159286;28;20052;-72
2023/03/04 00:05:38;;;;;;;18.95;9.23;;;;;;;-0.76;100.00;99107.69;4159571;28;20245;-72
2023/03/04 00:07:38;;;;;;;21.08;9.93;;;;;;;-0.66;100.00;99104.91;4159035;28;20519;-72
2023/03/04 00:09:38;;;;;;;20.75;11.13;;;;;;;-0.63;100.00;99108.94;4159530;28;20744;-72
2023/03/04 00:11:39;;;;;;;21.17;10.13;;;;;;;-0.62;100.00;99107.81;4159362;28;20482;-72
2023/03/04 00:13:39;;;;;;;17.92;9.05;;;;;;;-0.63;100.00;99107.03;4158139;28;20041;-72
2023/03/04 00:15:39;;;;;;;20.52;9.07;;;;;;;-0.63;100.00;99107.03;4159206;28;20096;-72
2023/03/04 00:17:40;;;;;;;22.48;11.02;;;;;;;-0.62;100.00;99100.47;4159866;28;20045;-72
2023/03/04 00:19:40;;;;;;;18.73;9.38;;;;;;;-0.60;100.00;99100.19;4159751;28;20298;-72
2023/03/04 00:21:41;;;;;;;23.42;10.10;;;;;;;-0.55;100.00;99097.44;4159539;28;20115;-72
2023/03/04 00:23:42;;;;;;;22.45;9.70;;;;;;;-0.51;100.00;99100.34;4158684;28;20045;-72
2023/03/04 00:25:43;;;;;;;19.30;9.32;;;;;;;-0.51;100.00;99089.47;4159203;28;20107;-72
2023/03/04 00:27:43;;;;;;;21.85;10.00;;;;;;;-0.41;100.00;99097.53;4158354;28;20124;-72
2023/03/04 00:29:43;;;;;;;22.05;11.00;;;;;;;-0.41;100.00;99095.63;4159522;28;20153;-72
2023/03/04 00:31:43;;;;;;;21.55;10.77;;;;;;;-0.42;100.00;99093.97;4158946;28;20041;-72
2023/03/04 00:33:44;;;;;;;20.17;11.02;;;;;;;-0.42;100.00;99090.47;4158342;28;20107;-72
2023/03/04 00:35:44;;;;;;;18.83;9.55;;;;;;;-0.31;100.00;99087.34;4159144;28;20127;-72
2023/03/04 00:37:45;;;;;;;18.33;9.68;;;;;;;-0.35;100.00;99085.47;4159573;28;20045;-72
2023/03/04 00:39:45;;;;;;;19.50;9.95;;;;;;;-0.37;100.00;99083.06;4160271;28;20095;-72
2023/03/04 00:41:45;;;;;;;21.38;10.57;;;;;;;-0.30;100.00;99078.06;4158548;28;20084;-72
2023/03/04 00:43:46;;;;;;;19.30;10.90;;;;;;;-0.33;100.00;99078.66;4156887;28;20053;-72
2023/03/04 00:45:46;;;;;;;22.50;10.57;;;;;;;-0.30;100.00;99082.69;4158857;28;20502;-72
2023/03/04 00:47:46;;;;;;;22.05;10.27;;;;;;;-0.33;100.00;99078.66;4158903;28;20125;-72
2023/03/04 00:49:47;;;;;;;25.15;10.43;;;;;;;-0.33;100.00;99089.53;4158926;28;20481;-72
2023/03/04 00:51:47;;;;;;;23.20;12.43;;;;;;;-0.24;100.00;99067.94;4158779;28;20488;-72
2023/03/04 00:53:47;;;;;;;20.88;10.98;;;;;;;-0.20;100.00;99070.88;4157935;28;20521;-72
2023/03/04 00:55:48;;;;;;;23.27;11.32;;;;;;;-0.20;100.00;99079.03;4158916;28;20049;-72
2023/03/04 00:57:48;;;;;;;24.20;10.98;;;;;;;-0.13;100.00;99074.06;4157950;28;20041;-72
2023/03/04 00:59:49;;;;;;;25.90;12.23;;;;;;;-0.18;100.00;99071.38;4158344;28;20048;-72
2023/03/04 01:01:49;;;;;;;23.70;11.90;;;;;;;-0.18;100.00;99069.47;4158870;28;20054;-72
2023/03/04 01:03:49;;;;;;;24.40;11.02;;;;;;;-0.22;100.00;99059.50;4157538;28;20041;-72
2023/03/04 01:05:50;;;;;;;24.88;12.10;;;;;;;-0.22;100.00;99064.94;4158805;28;20254;-72
2023/03/04 01:07:50;;;;;;;25.23;10.73;;;;;;;-0.22;100.00;99068.47;4158831;28;20054;-72
2023/03/04 01:09:50;;;;;;;20.75;10.38;;;;;;;-0.23;100.00;99061.41;4158029;28;20132;-73
2023/03/04 01:11:51;;;;;;;24.45;10.77;;;;;;;-0.23;100.00;99064.13;4157821;28;20080;-72
2023/03/04 01:13:52;;;;;;;25.80;11.07;;;;;;;-0.22;100.00;99060.28;4157643;28;20042;-72
2023/03/04 01:15:52;;;;;;;29.58;11.40;;;;;;;-0.28;100.00;99045.16;4158808;28;20057;-72
2023/03/04 01:17:53;;;;;;;26.58;11.57;;;;;;;-0.30;100.00;99050.88;4157826;28;20408;-72
2023/03/04 01:19:53;;;;;;;25.50;11.63;;;;;;;-0.31;100.00;99051.19;4157990;28;20715;-72
2023/03/04 01:21:53;;;;;;;24.42;11.45;;;;;;;-0.38;100.00;99048.81;4159064;28;20049;-72
2023/03/04 01:23:54;;;;;;;23.20;11.13;;;;;;;-0.33;100.00;99037.06;4157135;28;20052;-72
2023/03/04 01:25:54;;;;;;;22.95;10.75;;;;;;;-0.34;100.00;99035.44;4157274;28;20072;-73
2023/03/04 01:27:55;;;;;;;23.10;10.43;;;;;;;-0.34;100.00;99043.59;4158016;28;20049;-73
2023/03/04 01:29:56;;;;;;;23.50;10.82;;;;;;;-0.31;100.00;99037.59;4158849;28;20080;-73
2023/03/04 01:31:56;;;;;;;18.42;9.93;;;;;;;-0.31;100.00;99027.50;4157923;28;20049;-72
2023/03/04 01:33:57;;;;;;;23.42;10.70;;;;;;;-0.35;100.00;99028.38;4157372;28;20049;-73
2023/03/04 01:35:57;;;;;;;22.05;11.13;;;;;;;-0.28;100.00;99029.63;4157726;28;20041;-73
2023/03/04 01:37:58;;;;;;;22.08;11.13;;;;;;;-0.23;100.00;99022.53;4157521;28;20170;-73
2023/03/04 01:39:58;;;;;;;21.20;10.90;;;;;;;-0.20;100.00;99025.44;4157882;28;20068;-72
2023/03/04 01:41:58;;;;;;;26.52;11.95;;;;;;;-0.23;100.00;99020.59;4157917;28;20088;-72
2023/03/04 01:44:01;;;;;;;22.40;11.55;;;;;;;-0.23;100.00;99011.66;4157485;28;20120;-72
2023/03/04 01:46:02;;;;;;;22.35;11.68;;;;;;;-0.31;100.00;99016.63;4157964;28;20038;-73
2023/03/04 01:48:02;;;;;;;23.40;11.00;;;;;;;-0.30;100.00;99007.38;4157697;28;20075;-72
2023/03/04 01:50:10;;;;;;;23.08;11.50;;;;;;;-0.30;100.00;99001.13;4158181;28;20025;-72
2023/03/04 01:52:12;;;;;;;21.42;10.82;;;;;;;-0.32;100.00;98998.72;4157921;28;20037;-72
2023/03/04 01:54:13;;;;;;;23.63;10.95;;;;;;;-0.33;100.00;98996.28;4157165;28;20067;-73
2023/03/04 01:56:48;;;;;;;21.27;10.18;;;;;;;-0.28;100.00;98994.28;4157092;28;20099;-73
2023/03/04 01:59:07;;;;;;;21.27;11.10;;;;;;;-0.32;100.00;98997.91;4156964;28;20049;-73
2023/03/04 02:01:10;;;;;;;24.77;11.85;;;;;;;-0.32;100.00;98996.00;4157616;28;20037;-73
2023/03/04 02:03:14;;;;;;;19.65;10.93;;;;;;;-0.25;100.00;98998.31;4156621;28;20057;-72
2023/03/04 02:05:15;;;;;;;19.67;10.70;;;;;;;-0.25;100.00;98987.44;4157629;28;20458;-72
2023/03/04 02:07:15;;;;;;;18.88;10.43;;;;;;;-0.23;100.00;98992.59;4157492;28;20103;-72
2023/03/04 02:09:17;;;;;;;22.55;11.10;;;;;;;-0.16;100.00;98996.56;4157707;28;20096;-73
2023/03/04 02:11:17;;;;;;;25.75;11.60;;;;;;;-0.15;100.00;98998.19;4157638;28;20132;-73
2023/03/04 02:13:17;;;;;;;23.50;10.18;;;;;;;-0.19;100.00;98986.28;4157260;28;20080;-73
2023/03/04 02:15:18;;;;;;;23.33;9.98;;;;;;;-0.20;100.00;98979.22;4157335;28;20049;-73
2023/03/04 02:17:24;;;;;;;21.00;10.70;;;;;;;-0.21;100.00;98974.06;4157765;28;20041;-73
2023/03/04 02:19:54;;;;;;;21.10;10.63;;;;;;;-0.16;100.00;98974.00;4157244;28;20045;-72
2023/03/04 02:21:55;;;;;;;19.50;10.65;;;;;;;-0.10;100.00;98983.69;4157453;28;20041;-73
2023/03/04 02:23:59;;;;;;;21.85;10.57;;;;;;;-0.12;100.00;98975.03;4157034;28;20371;-73
2023/03/04 02:26:13;;;;;;;17.65;10.68;;;;;;;-0.08;100.00;98982.31;4157475;28;20045;-73
2023/03/04 02:28:13;;;;;;;22.75;10.82;;;;;;;-0.11;100.00;98971.19;4157150;28;20506;-73
2023/03/04 02:30:16;;;;;;;25.13;11.43;;;;;;;-0.14;100.00;98977.25;4157323;28;20061;-73
2023/03/04 02:32:16;;;;;;;23.20;12.20;;;;;;;-0.16;100.00;98968.56;4157929;28;20108;-73
2023/03/04 02:34:23;;;;;;;17.50;9.77;;;;;;;-0.11;100.00;98971.19;4156688;28;20045;-73
2023/03/04 02:36:24;;;;;;;23.23;11.65;;;;;;;-0.08;100.00;98971.44;4156756;28;20207;-73
2023/03/04 02:38:25;;;;;;;19.50;9.98;;;;;;;-0.04;100.00;98964.28;4156844;28;20049;-72
2023/03/04 02:40:33;;;;;;;16.33;9.60;;;;;;;-0.07;100.00;98970.31;4157658;28;20133;-73
2023/03/04 02:42:33;;;;;;;22.77;11.00;;;;;;;-0.07;100.00;98967.59;4156745;28;20270;-73
2023/03/04 02:44:36;;;;;;;23.77;10.48;;;;;;;-0.02;100.00;98961.25;4157393;28;20116;-73
2023/03/04 02:46:36;;;;;;;;;;;;;;;-0.06;100.00;98958.34;4157796;28;20033;-72
2023/03/04 02:48:37;;;;;;;19.40;9.57;;;;;;;-0.07;100.00;98964.06;4157699;28;19920;-73
2023/03/04 02:50:44;;;;;;;22.17;10.50;;;;;;;-0.09;100.00;98961.63;4157563;28;20041;-73
2023/03/04 02:52:44;;;;;;;19.50;10.10;;;;;;;-0.01;100.00;98966.41;4188161;28;20048;-73
2023/03/04 02:54:45;;;;;;;18.05;10.15;;;;;;;0.02;100.00;98956.03;4157490;28;20064;-73
2023/03/04 02:56:47;;;;;;;19.60;9.45;;;;;;;0.01;100.00;98949.81;4157012;28;20045;-73
2023/03/04 02:58:48;;;;;;;16.98;9.45;;;;;;;0.01;100.00;98957.16;4157493;28;20323;-73
2023/03/04 03:00:48;;;;;;;21.10;9.27;;;;;;;0.01;100.00;98947.06;4157100;28;20124;-72
2023/03/04 03:02:49;;;;;;;18.80;9.23;;;;;;;0.04;100.00;98951.91;4156948;28;20449;-73
2023/03/04 03:04:49;;;;;;;19.58;9.68;;;;;;;0.10;100.00;98947.22;4157656;28;20477;-73
2023/03/04 03:06:49;;;;;;;18.70;9.52;;;;;;;-0.01;100.00;98939.19;4158443;28;20042;-73
2023/03/04 03:08:50;;;;;;;18.33;9.60;;;;;;;-0.02;100.00;98959.34;4159502;28;20053;-73
2023/03/04 03:10:50;;;;;;;14.63;8.73;;;;;;;0.03;100.00;98944.06;4160381;28;20080;-73
2023/03/04 03:12:50;;;;;;;18.63;9.65;;;;;;;-0.01;100.00;98944.63;4160002;28;20041;-73
2023/03/04 03:14:51;;;;;;;21.42;8.77;;;;;;;-0.02;100.00;98942.22;4160168;28;20076;-73
2023/03/04 03:16:51;;;;;;;18.33;9.77;;;;;;;0.01;100.00;98944.34;4160278;28;20042;-73
2023/03/04 03:18:51;;;;;;;21.05;9.40;;;;;;;0.01;100.00;98943.56;4160167;28;20049;-73
2023/03/04 03:20:52;;;;;;;19.35;9.35;;;;;;;0.02;100.00;98939.72;4160202;28;20041;-73
2023/03/04 03:22:52;;;;;;;16.67;8.82;;;;;;;0.01;100.00;98943.56;4159302;28;20125;-73
2023/03/04 03:24:52;;;;;;;20.08;10.38;;;;;;;-0.02;100.00;98936.78;4160566;28;20730;-73
2023/03/04 03:26:53;;;;;;;21.73;9.77;;;;;;;-0.06;100.00;98931.13;4160142;28;20482;-73
2023/03/04 03:28:53;;;;;;;21.73;10.00;;;;;;;-0.05;100.00;98937.38;4160216;28;20049;-73
2023/03/04 03:30:54;;;;;;;24.27;10.75;;;;;;;-0.07;100.00;98936.88;4160069;28;20045;-73
2023/03/04 03:32:54;;;;;;;20.38;9.70;;;;;;;-0.05;100.00;98935.47;4159661;28;20466;-73
2023/03/04 03:34:54;;;;;;;20.17;9.55;;;;;;;-0.07;100.00;98931.44;4159929;28;20045;-73
2023/03/04 03:36:55;;;;;;;19.83;9.63;;;;;;;-0.02;100.00;98931.34;4159559;28;20045;-73
2023/03/04 03:38:55;;;;;;;22.30;9.93;;;;;;;-0.03;100.00;98938.69;4160116;28;20065;-73
2023/03/04 03:40:55;;;;;;;18.35;9.63;;;;;;;-0.07;100.00;98937.69;4159723;28;20052;-73
2023/03/04 03:42:56;;;;;;;17.13;8.43;;;;;;;-0.02;100.00;98932.13;4159786;28;20394;-73
2023/03/04 03:44:56;;;;;;;21.15;9.30;;;;;;;-0.05;100.00;98935.47;4160308;28;20332;-73
2023/03/04 03:46:56;;;;;;;26.05;9.95;;;;;;;-0.03;100.00;98932.44;4159659;28;20516;-73
2023/03/04 03:48:57;;;;;;;20.02;11.15;;;;;;;0.05;100.00;98941.84;4159816;28;20033;-73
2023/03/04 03:50:57;;;;;;;18.13;9.98;;;;;;;0.00;100.00;98934.59;4159157;28;20041;-73
2023/03/04 03:52:58;;;;;;;20.13;10.25;;;;;;;-0.04;100.00;98926.19;4189638;28;20028;-73
2023/03/04 03:55:00;;;;;;;17.45;9.05;;;;;;;-0.01;100.00;98932.94;4159702;28;20057;-73
2023/03/04 03:57:01;;;;;;;;;;;;;;;-0.04;100.00;98928.91;4159856;28;20537;-73
2023/03/04 03:59:01;;;;;;;22.65;9.68;;;;;;;-0.02;100.00;98926.69;4159722;28;20004;-73
2023/03/04 04:01:01;;;;;;;21.02;10.02;;;;;;;0.01;100.00;98932.66;4159358;28;20053;-73
2023/03/04 04:03:02;;;;;;;20.00;9.35;;;;;;;-0.02;100.00;98934.06;4159061;28;20077;-73
2023/03/04 04:05:02;;;;;;;18.25;8.80;;;;;;;-0.01;100.00;98928.31;4159558;28;20049;-73
2023/03/04 04:07:03;;;;;;;19.70;9.60;;;;;;;-0.03;100.00;98927.00;4159048;28;20132;-73
2023/03/04 04:09:03;;;;;;;21.52;9.98;;;;;;;-0.01;100.00;98939.19;4159511;28;20060;-73
2023/03/04 04:11:04;;;;;;;21.33;11.63;;;;;;;0.06;100.00;98938.81;4159538;28;20065;-73
2023/03/04 04:13:04;;;;;;;21.60;10.85;;;;;;;-0.01;100.00;98931.03;4158784;28;20046;-73
2023/03/04 04:15:05;;;;;;;21.33;9.10;;;;;;;0.02;100.00;98932.38;4159816;28;20398;-73
2023/03/04 04:17:05;;;;;;;15.82;8.60;;;;;;;0.07;100.00;98939.63;4158958;28;20552;-73
2023/03/04 04:19:06;;;;;;;19.38;7.45;;;;;;;0.10;100.00;98928.97;4158792;28;20057;-73
2023/03/04 04:21:06;;;;;;;22.05;8.85;;;;;;;0.10;100.00;98934.41;4158955;28;20107;-73
2023/03/04 04:23:06;;;;;;;15.38;8.25;;;;;;;0.14;100.00;98929.97;4157747;28;20069;-73
2023/03/04 04:25:09;;;;;;;19.30;8.65;;;;;;;0.15;100.00;98917.16;4159460;28;20073;-73
2023/03/04 04:27:10;;;;;;;21.08;8.10;;;;;;;0.15;100.00;98930.78;4159520;28;20496;-73
2023/03/04 04:29:13;;;;;;;16.40;7.47;;;;;;;0.22;100.00;98926.56;4158768;28;20125;-73
2023/03/04 04:31:13;;;;;;;17.17;7.90;;;;;;;0.18;100.00;98925.56;4158659;28;20100;-73
2023/03/04 04:33:14;;;;;;;17.98;7.03;;;;;;;0.21;100.00;98922.22;4158766;28;20041;-73
2023/03/04 04:35:14;;;;;;;15.82;7.18;;;;;;;0.23;100.00;98925.44;4158728;28;20432;-73
2023/03/04 04:37:14;;;;;;;16.52;8.10;;;;;;;0.17;100.00;98921.22;4158775;28;20054;-73
2023/03/04 04:39:15;;;;;;;21.10;8.35;;;;;;;0.19;100.00;98926.38;4159070;28;20077;-73
2023/03/04 04:41:20;;;;;;;19.98;7.88;;;;;;;0.20;100.00;98933.41;4159265;28;20048;-73
2023/03/04 04:43:20;;;;;;;16.02;7.80;;;;;;;0.18;100.00;98933.72;4157325;28;20047;-73
2023/03/04 04:45:20;;;;;;;24.80;8.63;;;;;;;0.24;100.00;98935.22;4157712;28;20065;-73
2023/03/04 04:47:21;;;;;;;21.65;7.68;;;;;;;0.24;100.00;98929.78;4158559;28;20052;-73
2023/03/04 04:49:21;;;;;;;12.90;7.22;;;;;;;0.17;100.00;98925.88;4158892;28;20049;-73
2023/03/04 04:51:21;;;;;;;21.48;8.48;;;;;;;0.18;100.00;98927.47;4158457;28;20061;-73
2023/03/04 04:53:22;;;;;;;19.58;7.78;;;;;;;0.26;100.00;98927.59;4158091;28;20081;-73
2023/03/04 04:55:22;;;;;;;14.15;6.80;;;;;;;0.22;100.00;98931.19;4159178;28;20045;-73
2023/03/04 04:57:22;;;;;;;17.02;6.93;;;;;;;0.18;100.00;98930.19;4158655;28;20136;-73
2023/03/04 04:59:23;;;;;;;15.38;7.72;;;;;;;0.18;100.00;98935.63;4158334;28;20101;-73
2023/03/04 05:01:24;;;;;;;16.95;7.88;;;;;;;0.28;100.00;98933.53;4159073;28;20435;-73
2023/03/04 05:03:24;;;;;;;22.85;7.47;;;;;;;0.27;100.00;98940.09;4157926;28;20069;-73
2023/03/04 05:05:24;;;;;;;21.35;7.43;;;;;;;0.36;100.00;98929.31;4156112;28;20057;-73
2023/03/04 05:07:25;;;;;;;21.80;7.47;;;;;;;0.33;100.00;98931.81;4158425;28;20133;-73
2023/03/04 05:09:25;;;;;;;14.07;6.88;;;;;;;0.34;100.00;98934.25;4159036;28;20196;-73
2023/03/04 05:11:26;;;;;;;16.63;6.63;;;;;;;0.29;100.00;98934.34;4158558;28;20136;-73
2023/03/04 05:13:26;;;;;;;18.55;7.13;;;;;;;0.25;100.00;98941.50;4158789;28;20041;-73
2023/03/04 05:15:26;;;;;;;25.48;7.57;;;;;;;0.29;100.00;98947.94;4158110;28;20058;-73
2023/03/04 05:17:27;;;;;;;17.92;6.75;;;;;;;0.23;100.00;98952.66;4158298;28;20353;-73
2023/03/04 05:19:28;;;;;;;16.77;7.45;;;;;;;0.22;100.00;98932.00;4158113;28;20038;-73
2023/03/04 05:21:28;;;;;;;12.30;6.60;;;;;;;0.23;100.00;98940.97;4158633;28;20302;-73
2023/03/04 05:23:31;;;;;;;16.17;6.60;;;;;;;0.24;100.00;98948.03;4157853;28;20081;-73
2023/03/04 05:25:32;;;;;;;15.98;6.95;;;;;;;0.30;100.00;98940.59;4157997;28;20057;-73
2023/03/04 05:27:32;;;;;;;21.15;7.18;;;;;;;0.27;100.00;98945.53;4157684;28;20053;-73
2023/03/04 05:29:33;;;;;;;14.40;6.70;;;;;;;0.27;100.00;98934.66;4157983;28;20072;-73
2023/03/04 05:31:33;;;;;;;17.65;6.70;;;;;;;0.25;100.00;98947.75;4157810;28;20044;-73
2023/03/04 05:33:33;;;;;;;22.45;7.97;;;;;;;0.31;100.00;98948.44;4156994;28;20057;-73
2023/03/04 05:35:35;;;;;;;15.18;7.20;;;;;;;0.35;100.00;98938.59;4158541;28;20386;-73
2023/03/04 05:37:36;;;;;;;23.80;9.02;;;;;;;0.31;100.00;98945.72;4158347;28;20049;-73
2023/03/04 05:39:36;;;;;;;17.02;6.85;;;;;;;0.31;100.00;98953.09;4158194;28;20064;-73
2023/03/04 05:41:37;;;;;;;19.33;7.63;;;;;;;0.32;100.00;98946.53;4157165;28;20314;-73
2023/03/04 05:43:41;;;;;;;17.55;6.57;;;;;;;0.33;100.00;98942.72;4157869;28;20152;-73
2023/03/04 05:45:42;;;;;;;16.45;6.75;;;;;;;0.35;100.00;98957.66;4157290;28;20462;-73
2023/03/04 05:47:42;;;;;;;15.18;6.90;;;;;;;0.37;100.00;98941.00;4156537;28;20081;-73
2023/03/04 05:49:43;;;;;;;17.88;6.93;;;;;;;0.38;100.00;98939.91;4157804;28;20157;-73
2023/03/04 05:51:43;;;;;;;16.48;6.95;;;;;;;0.34;100.00;98941.63;4158206;28;20044;-73
2023/03/04 05:53:44;;;;;;;15.75;6.70;;;;;;;0.33;100.00;98940.78;4157114;28;20401;-73
2023/03/04 05:55:46;;;;;;;11.88;5.65;;;;;;;0.39;100.00;98945.03;4157523;28;20049;-73
2023/03/04 05:57:47;;;;;;;12.88;6.13;;;;;;;0.41;100.00;98950.19;4158042;28;20425;-73
2023/03/04 05:59:47;;;;;;;20.80;6.25;;;;;;;0.32;100.00;98941.09;4158184;28;20047;-73
2023/03/04 06:01:47;;;;;;;15.00;6.50;;;;;;;0.38;100.00;98946.16;4157524;28;20548;-73
2023/03/04 06:03:48;;;;;;;13.43;6.90;;;;;;;0.38;100.00;98946.16;4157115;28;20120;-73
2023/03/04 06:05:48;;;;;;;19.70;6.68;;;;;;;0.38;100.00;98950.78;4157732;28;20057;-73
2023/03/04 06:07:48;;;;;;;16.10;6.47;;;;;;;0.36;100.00;98947.56;4157184;28;20045;-73
2023/03/04 06:09:49;;;;;;;20.90;7.03;;;;;;;0.40;100.00;98945.84;4157688;28;20397;-73
2023/03/04 06:11:49;;;;;;;14.48;6.75;;;;;;;0.39;100.00;98952.41;4158009;28;20049;-73
2023/03/04 06:13:49;;;;;;;16.50;6.82;;;;;;;0.37;100.00;98950.00;4156744;28;20057;-73
2023/03/04 06:15:57;;;;;;;13.23;6.28;;;;;;;0.38;100.00;98937.19;4157310;28;20045;-73
2023/03/04 06:17:58;;;;;;;21.08;6.82;;;;;;;0.31;100.00;98937.56;4157028;28;20074;-73
2023/03/04 06:19:58;;;;;;;13.68;6.57;;;;;;;0.30;100.00;98948.75;4158072;28;20050;-73
2023/03/04 06:21:59;;;;;;;23.92;6.53;;;;;;;0.39;100.00;98947.78;4157845;28;20504;-73
2023/03/04 06:23:59;;;;;;;16.05;5.75;;;;;;;0.42;100.00;98943.66;4156686;28;20053;-73
2023/03/04 06:26:00;;;;;;;21.55;8.60;;;;;;;0.52;100.00;98946.19;4156615;28;20077;-73
2023/03/04 06:28:01;;;;;;;14.70;6.15;;;;;;;0.50;100.00;98941.06;4157905;28;20048;-73
2023/03/04 06:30:01;;;;;;;18.85;7.13;;;;;;;0.53;100.00;98939.63;4156900;28;20045;-73
2023/03/04 06:32:01;;;;;;;15.00;6.75;;;;;;;0.55;100.00;98943.66;4156872;28;20025;-73
2023/03/04 06:34:02;;;;;;;19.67;7.10;;;;;;;0.51;100.00;98939.94;4156634;28;20352;-73
2023/03/04 06:36:03;;;;;;;11.48;5.85;;;;;;;0.47;100.00;98944.34;4157356;28;20428;-73
2023/03/04 06:38:03;;;;;;;18.17;6.35;;;;;;;0.55;100.00;98949.09;4157298;28;20036;-73
2023/03/04 06:40:04;;;;;;;20.17;7.70;;;;;;;0.51;100.00;98945.38;4156891;28;20047;-73
2023/03/04 06:42:05;;;;;;;17.92;7.32;;;;;;;0.51;100.00;98941.84;4158040;28;20040;-73
2023/03/04 06:44:05;;;;;;;13.07;6.00;;;;;;;0.54;100.00;98946.69;4158665;28;20030;-73
2023/03/04 06:46:07;;;;;;;12.00;6.18;;;;;;;0.61;100.00;98949.03;4159927;28;20425;-73
2023/03/04 06:48:07;;;;;;;13.63;6.82;;;;;;;0.66;100.00;98952.44;4160607;28;20033;-73
2023/03/04 06:50:08;;;;;;;16.35;7.05;;;;;;;0.60;100.00;98947.41;4160577;28;20480;-73
2023/03/04 06:52:10;;;;;;;15.07;7.65;;;;;;;0.59;100.00;98954.78;4159337;28;20025;-73
2023/03/04 06:54:11;;;;;;;15.65;6.47;;;;;;;0.62;100.00;98959.59;4157261;28;20103;-73
2023/03/04 06:56:14;;;;;;;15.20;5.75;;;;;;;0.66;100.00;98949.72;4158674;28;21005;-73
2023/03/04 06:58:16;;;;;;;16.33;5.85;;;;;;;0.66;100.00;98949.72;4151223;28;20067;-73
2023/03/04 07:00:18;;;;;;;14.10;5.55;;;;;;;0.69;100.00;98951.03;4101247;28;20080;-73
2023/03/04 07:02:18;;;;;;;20.05;7.47;;;;;;;0.61;100.00;98947.09;4170830;28;20021;-74
2023/03/04 07:04:19;;;;;;;13.65;5.25;;;;;;;0.64;100.00;98946.50;4154456;28;20628;-73
2023/03/04 07:06:22;;;;;;;14.52;5.97;;;;;;;0.75;100.00;98955.28;4155020;28;20057;-73
2023/03/04 07:08:23;;;;;;;16.13;5.93;;;;;;;0.77;100.00;98955.78;4158768;28;20374;-73
2023/03/04 07:10:23;;;;;;;14.15;5.30;;;;;;;0.76;100.00;98955.00;4152884;28;20231;-73
2023/03/04 07:12:23;;;;;;;20.60;5.40;;;;;;;0.74;100.00;98950.94;4155036;28;20092;-74
2023/03/04 07:14:24;;;;;;;13.32;4.78;;;;;;;0.82;100.00;98952.94;4154177;28;20076;-73
2023/03/04 07:16:25;;;;;;;12.52;4.65;;;;;;;0.86;100.00;98958.63;4155205;28;20139;-73
2023/03/04 07:18:25;;;;;;;11.38;3.80;;;;;;;0.80;100.00;98957.91;4155030;28;20060;-74
2023/03/04 07:20:25;;;;;;;13.07;4.43;;;;;;;0.80;100.00;98966.88;4157861;28;20076;-73
2023/03/04 07:22:26;;;;;;;16.90;5.13;;;;;;;0.79;100.00;98959.81;4158005;28;20053;-74
2023/03/04 07:24:26;;;;;;;12.35;4.50;;;;;;;0.84;100.00;98965.19;4155690;28;20652;-73
2023/03/04 07:26:26;;;;;;;12.27;4.70;;;;;;;0.92;100.00;98958.22;4155793;28;20055;-74
2023/03/04 07:28:27;;;;;;;11.55;3.85;;;;;;;0.93;100.00;98967.19;4157308;28;20382;-74
2023/03/04 07:30:27;;;;;;;7.85;4.00;;;;;;;0.96;100.00;98970.13;4158052;28;20046;-73
2023/03/04 07:32:28;;;;;;;11.88;4.40;;;;;;;0.96;100.00;98963.88;4158759;28;20068;-74
2023/03/04 07:34:28;;;;;;;12.60;4.25;;;;;;;0.94;100.00;98969.63;4159398;28;20068;-73
2023/03/04 07:36:29;;;;;;;15.77;4.40;;;;;;;0.92;100.00;98962.88;4159826;28;20051;-74
2023/03/04 07:38:30;;;;;;;10.27;4.13;;;;;;;0.95;100.00;98957.59;4160423;28;20128;-74
2023/03/04 07:40:30;;;;;;;13.18;5.13;;;;;;;0.97;100.00;98968.19;4159565;28;20125;-74
2023/03/04 07:42:30;;;;;;;11.82;4.28;;;;;;;1.05;100.00;98971.03;4158945;28;20492;-74
2023/03/04 07:44:31;;;;;;;12.13;5.60;;;;;;;1.10;100.00;98979.09;4159081;28;20435;-74
2023/03/04 07:46:32;;;;;;;14.38;5.80;;;;;;;1.04;100.00;98966.69;4159689;28;20355;-74
2023/03/04 07:48:32;;;;;;;16.25;6.70;;;;;;;1.00;100.00;98973.88;4159815;28;20049;-74
2023/03/04 07:50:33;;;;;;;21.15;9.65;;;;;;;1.04;100.00;98969.41;4159797;28;20265;-74
2023/03/04 07:52:37;;;;;;;19.98;6.45;;;;;;;1.05;100.00;98971.03;4159254;28;20627;-73
2023/03/04 07:54:37;;;;;;;20.38;6.25;;;;;;;1.03;100.00;98970.53;4159610;28;20049;-73
2023/03/04 07:56:38;;;;;;;16.25;6.82;;;;;;;1.04;100.00;98969.41;4159149;28;20386;-73
2023/03/04 07:58:38;;;;;;;16.88;6.30;;;;;;;1.19;100.00;98970.22;4158699;28;20326;-74
2023/03/04 08:00:40;;;;;;;9.73;4.78;;;;;;;1.13;100.00;98974.97;4159574;28;20049;-74
2023/03/04 08:02:40;;;;;;;11.70;4.68;;;;;;;1.15;100.00;98971.91;4158625;28;20133;-74
2023/03/04 08:04:41;;;;;;;10.95;4.20;;;;;;;1.13;100.00;98974.97;4158753;28;20034;-74
2023/03/04 08:06:41;;;;;;;14.48;4.68;;;;;;;1.13;100.00;98981.22;4159541;28;20634;-74
2023/03/04 08:08:42;;;;;;;12.48;5.10;;;;;;;1.17;100.00;98970.53;4158900;28;20160;-74
2023/03/04 08:10:43;;;;;;;15.88;5.25;;;;;;;1.16;100.00;98976.25;4157198;28;20041;-73
2023/03/04 08:12:44;;;;;;;10.75;5.50;;;;;;;1.22;100.00;98973.13;4157956;28;20033;-74
2023/03/04 08:14:44;;;;;;;12.95;5.68;;;;;;;1.21;100.00;98968.78;4159546;28;20049;-74
2023/03/04 08:16:45;;;;;;;14.05;5.45;;;;;;;1.22;100.00;98972.31;4159485;28;20057;-74
2023/03/04 08:18:47;;;;;;;13.82;4.88;;;;;;;1.18;100.00;98966.69;4158904;28;20064;-73
2023/03/04 08:20:48;;;;;;;12.65;4.75;;;;;;;1.22;100.00;98964.94;4159604;28;20124;-74
2023/03/04 08:22:49;;;;;;;16.80;4.75;;;;;;;1.24;100.00;98967.38;4158561;28;20540;-73
2023/03/04 08:24:50;;;;;;;15.23;3.85;;;;;;;1.25;100.00;98958.09;4159372;28;20128;-74
2023/03/04 08:26:50;;;;;;;10.60;4.43;;;;;;;1.36;100.00;98967.66;4159136;28;20510;-74
2023/03/04 08:28:51;;;;;;;10.80;4.15;;;;;;;1.36;100.00;98954.84;4159378;28;20033;-74
2023/03/04 08:30:53;;;;;;;10.18;4.57;;;;;;;1.38;100.00;98959.97;4159164;28;20121;-74
2023/03/04 08:32:53;;;;;;;8.07;3.92;;;;;;;1.47;100.00;98958.16;4158566;28;20042;-74
2023/03/04 08:34:55;;;;;;;6.35;3.65;;;;;;;1.58;100.00;98954.09;4158410;28;20111;-74
2023/03/04 08:36:55;;;;;;;11.27;4.10;;;;;;;1.63;100.00;98945.78;4157963;28;20535;-73
2023/03/04 08:38:55;;;;;;;13.73;5.85;;;;;;;1.80;100.00;98955.22;4158803;28;20060;-74
2023/03/04 08:40:56;;;;;;;9.63;4.57;;;;;;;1.90;100.00;98952.25;4158069;28;20056;-74
2023/03/04 08:42:56;;;;;;;14.02;5.03;;;;;;;1.91;100.00;98946.50;4157198;28;20037;-74
2023/03/04 08:44:56;;;;;;;14.93;7.60;;;;;;;2.00;100.00;98943.84;4157398;28;20374;-74
2023/03/04 08:46:57;;;;;;;16.27;7.10;;;;;;;2.09;100.00;98943.91;4158004;28;20068;-74
2023/03/04 08:48:57;;;;;;;14.32;5.72;;;;;;;2.08;100.00;98943.09;4159235;28;20464;-73
2023/03/04 08:50:57;;;;;;;7.13;4.05;;;;;;;2.08;100.00;98943.09;4158271;28;20073;-74
2023/03/04 08:52:58;;;;;;;9.15;3.40;;;;;;;2.15;100.00;98943.47;4155338;28;20444;-74
2023/03/04 08:54:58;;;;;;;8.05;3.80;;;;;;;2.16;100.00;98934.16;4157766;28;20520;-74
2023/03/04 08:56:59;;;;;;;15.85;6.65;;;;;;;2.25;100.00;98928.75;4158421;28;20048;-74
2023/03/04 08:58:59;;;;;;;15.75;6.30;;;;;;;2.35;100.00;98933.94;4158745;28;20410;-74
2023/03/04 09:01:00;;;;;;;10.07;5.18;;;;;;;2.42;100.00;98928.84;4157833;28;20130;-74
2023/03/04 09:03:00;;;;;;;10.93;4.78;;;;;;;2.51;100.00;98926.16;4157110;28;20049;-74
2023/03/04 09:05:01;;;;;;;5.60;3.08;;;;;;;2.45;100.00;98925.47;4157694;28;20038;-74
2023/03/04 09:07:01;;;;;;;7.60;3.55;;;;;;;2.58;100.00;98922.97;4158305;28;20085;-74
2023/03/04 09:09:03;;;;;;;5.72;3.60;;;;;;;2.64;100.00;98919.78;4159099;28;20544;-74
2023/03/04 09:11:03;;;;;;;14.95;2.92;;;;;;;2.73;100.00;98914.34;4156770;28;20033;-74
2023/03/04 09:13:05;;;;;;;5.28;3.13;;;;;;;2.77;100.00;98918.06;4157488;28;20502;-74
2023/03/04 09:15:06;;;;;;;8.70;3.53;;;;;;;2.85;100.00;98927.44;4157864;28;20042;-74
2023/03/04 09:17:07;;;;;;;9.43;3.20;;;;;;;2.91;100.00;98924.25;4157872;28;20034;-73
2023/03/04 09:19:07;;;;;;;11.98;3.72;;;;;;;2.95;100.00;98919.72;4157124;28;20504;-74
2023/03/04 09:21:07;;;;;;;5.80;2.67;;;;;;;2.91;100.00;98910.56;4158351;28;20480;-74